Weather at Tayayi Airstrip

Public forecast

Using degrees Celsius for public forecast. Weather courtesy of forecast.io.

Closest aviation weather report (METAR) to Tayayi Airstrip

Report is more than 6 hours old.

Closest report is Mozes Kilangin Airport, 99.4 nm (184.0 km) SSW. Retrieved 2021/07/14 06:00 UTC (18 days ago):

WAYY 140600Z 26005KT 8000 BKN014 28/26 Q1006 NOSIG

Closest aviation forecast (TAF) to Tayayi Airstrip

Closest forecast is Mozes Kilangin Airport, 99.4 nm (184.0 km) SSW. Retrieved UTC (0 seconds ago):